Time,TemperatureF,DewpointF,PressureIn,WindDirection,WindDirectionDegrees,WindSpeedMPH,WindSpeedGustMPH,Humidity,HourlyPrecipIn,Conditions,Clouds,dailyrainin,SoftwareType,DateUTC
2013-09-26 00:01:00,56.9,49.7,29.90,North,0,0.0,0.0,77,0.00,,,0.00,WUHU216HW,2013-09-26 04:01:00,
2013-09-26 00:06:00,56.9,50.0,29.90,North,0,0.0,0.0,78,0.00,,,0.00,WUHU216HW,2013-09-26 04:06:00,
2013-09-26 00:11:00,56.7,49.9,29.90,North,0,0.0,0.0,78,0.00,,,0.00,WUHU216HW,2013-09-26 04:11:00,
2013-09-26 00:16:00,56.7,49.9,29.90,North,0,0.0,0.0,78,0.00,,,0.00,WUHU216HW,2013-09-26 04:16:00,
2013-09-26 00:21:00,56.5,49.7,29.90,North,0,0.0,0.0,78,0.00,,,0.00,WUHU216HW,2013-09-26 04:21:00,
2013-09-26 00:26:00,56.7,49.9,29.90,North,0,0.0,0.0,78,0.00,,,0.00,WUHU216HW,2013-09-26 04:26:00,
2013-09-26 00:31:00,56.7,49.9,29.90,North,0,0.0,0.0,78,0.00,,,0.00,WUHU216HW,2013-09-26 04:31:00,
2013-09-26 00:36:00,56.7,49.9,29.90,North,0,0.0,0.0,78,0.00,,,0.00,WUHU216HW,2013-09-26 04:36:00,
2013-09-26 00:41:00,56.5,49.7,29.90,North,0,0.0,0.0,78,0.00,,,0.00,WUHU216HW,2013-09-26 04:41:00,
2013-09-26 00:46:00,56.5,49.7,29.90,North,0,0.0,0.0,78,0.00,,,0.00,WUHU216HW,2013-09-26 04:46:00,
2013-09-26 00:51:00,56.5,49.7,29.90,North,0,0.0,0.0,78,0.00,,,0.00,WUHU216HW,2013-09-26 04:51:00,
2013-09-26 00:56:00,56.3,49.5,29.90,North,0,0.0,0.0,78,0.00,,,0.00,WUHU216HW,2013-09-26 04:56:00,
2013-09-26 01:01:00,56.2,49.3,29.90,North,0,0.0,0.0,78,0.00,,,0.00,WUHU216HW,2013-09-26 05:01:00,
2013-09-26 01:06:00,56.2,49.3,29.89,North,0,0.0,0.0,78,0.00,,,0.00,WUHU216HW,2013-09-26 05:06:00,
2013-09-26 01:11:00,56.2,49.3,29.89,North,0,0.0,0.0,78,0.00,,,0.00,WUHU216HW,2013-09-26 05:11:00,
2013-09-26 01:16:00,56.2,49.3,29.90,North,0,0.0,0.0,78,0.00,,,0.00,WUHU216HW,2013-09-26 05:16:00,
2013-09-26 01:21:00,56.0,49.1,29.90,North,0,0.0,0.0,78,0.00,,,0.00,WUHU216HW,2013-09-26 05:21:00,
2013-09-26 01:26:00,56.0,49.1,29.90,North,0,0.0,0.0,78,0.00,,,0.00,WUHU216HW,2013-09-26 05:26:00,
2013-09-26 01:31:00,55.8,49.0,29.90,North,0,0.0,0.0,78,0.00,,,0.00,WUHU216HW,2013-09-26 05:31:00,
2013-09-26 01:36:00,55.8,49.0,29.90,North,0,0.0,0.0,78,0.00,,,0.00,WUHU216HW,2013-09-26 05:36:00,
2013-09-26 01:41:00,55.8,49.0,29.90,North,0,0.0,0.0,78,0.00,,,0.00,WUHU216HW,2013-09-26 05:41:00,
2013-09-26 01:46:00,55.8,49.0,29.90,North,0,0.0,0.0,78,0.00,,,0.00,WUHU216HW,2013-09-26 05:46:00,
2013-09-26 01:51:00,55.8,49.0,29.90,North,0,0.0,0.0,78,0.00,,,0.00,WUHU216HW,2013-09-26 05:51:00,
2013-09-26 01:56:00,55.8,49.0,29.90,North,0,0.0,0.0,78,0.00,,,0.00,WUHU216HW,2013-09-26 05:56:00,
2013-09-26 02:01:00,55.6,48.8,29.90,North,0,0.0,0.0,78,0.00,,,0.00,WUHU216HW,2013-09-26 06:01:00,
2013-09-26 02:06:00,55.4,48.6,29.90,North,0,0.0,0.0,78,0.00,,,0.00,WUHU216HW,2013-09-26 06:06:00,
2013-09-26 02:11:00,55.4,48.6,29.90,North,0,0.0,0.0,78,0.00,,,0.00,WUHU216HW,2013-09-26 06:11:00,
2013-09-26 02:16:00,55.4,48.6,29.90,North,0,0.0,0.0,78,0.00,,,0.00,WUHU216HW,2013-09-26 06:16:00,
2013-09-26 02:21:00,55.4,49.0,29.90,North,0,0.0,0.0,79,0.00,,,0.00,WUHU216HW,2013-09-26 06:21:00,
2013-09-26 02:26:00,55.3,48.8,29.89,North,0,0.0,0.0,79,0.00,,,0.00,WUHU216HW,2013-09-26 06:26:00,
2013-09-26 02:31:00,55.3,48.8,29.90,North,0,0.0,0.0,79,0.00,,,0.00,WUHU216HW,2013-09-26 06:31:00,
2013-09-26 02:36:00,55.1,48.7,29.89,North,0,0.0,0.0,79,0.00,,,0.00,WUHU216HW,2013-09-26 06:36:00,
2013-09-26 02:41:00,55.1,48.7,29.90,North,0,0.0,0.0,79,0.00,,,0.00,WUHU216HW,2013-09-26 06:41:00,
2013-09-26 02:46:00,55.1,48.7,29.90,North,0,0.0,0.0,79,0.00,,,0.00,WUHU216HW,2013-09-26 06:46:00,
2013-09-26 02:51:00,55.1,48.3,29.90,North,0,0.0,0.0,78,0.00,,,0.00,WUHU216HW,2013-09-26 06:51:00,
2013-09-26 02:56:00,55.3,48.5,29.90,North,0,0.0,0.0,78,0.00,,,0.00,WUHU216HW,2013-09-26 06:56:00,
2013-09-26 03:01:00,55.3,48.5,29.89,North,0,0.0,0.0,78,0.00,,,0.00,WUHU216HW,2013-09-26 07:01:00,
2013-09-26 03:06:00,55.4,48.6,29.89,North,0,0.0,0.0,78,0.00,,,0.00,WUHU216HW,2013-09-26 07:06:00,
2013-09-26 03:11:00,55.4,48.6,29.89,North,0,0.0,0.0,78,0.00,,,0.00,WUHU216HW,2013-09-26 07:11:00,
2013-09-26 03:16:00,55.3,48.5,29.90,North,0,0.0,0.0,78,0.00,,,0.00,WUHU216HW,2013-09-26 07:16:00,
2013-09-26 03:21:00,55.3,48.5,29.89,North,0,0.0,0.0,78,0.00,,,0.00,WUHU216HW,2013-09-26 07:21:00,
2013-09-26 03:26:00,55.3,48.5,29.90,North,0,0.0,0.0,78,0.00,,,0.00,WUHU216HW,2013-09-26 07:26:00,
2013-09-26 03:31:00,55.3,48.5,29.89,North,0,0.0,0.0,78,0.00,,,0.00,WUHU216HW,2013-09-26 07:31:00,
2013-09-26 03:36:00,55.3,48.5,29.90,North,0,0.0,0.0,78,0.00,,,0.00,WUHU216HW,2013-09-26 07:36:00,
2013-09-26 03:41:00,55.3,48.5,29.90,North,0,0.0,0.0,78,0.00,,,0.00,WUHU216HW,2013-09-26 07:41:00,
2013-09-26 03:46:00,55.1,48.3,29.90,North,0,0.0,0.0,78,0.00,,,0.00,WUHU216HW,2013-09-26 07:46:00,
2013-09-26 03:51:00,55.1,48.3,29.90,North,0,0.0,0.0,78,0.00,,,0.00,WUHU216HW,2013-09-26 07:51:00,
2013-09-26 03:56:00,55.1,48.3,29.90,North,0,0.0,0.0,78,0.00,,,0.00,WUHU216HW,2013-09-26 07:56:00,
2013-09-26 04:01:00,55.1,48.3,29.90,North,0,0.0,0.0,78,0.00,,,0.00,WUHU216HW,2013-09-26 08:01:00,
2013-09-26 04:06:00,55.1,48.3,29.90,North,0,0.0,0.0,78,0.00,,,0.00,WUHU216HW,2013-09-26 08:06:00,
2013-09-26 04:11:00,55.4,48.6,29.90,North,0,0.0,0.0,78,0.00,,,0.00,WUHU216HW,2013-09-26 08:11:00,
2013-09-26 04:16:00,55.4,48.6,29.90,North,0,0.0,0.0,78,0.00,,,0.00,WUHU216HW,2013-09-26 08:16:00,
2013-09-26 04:21:00,55.4,48.6,29.90,North,0,0.0,0.0,78,0.00,,,0.00,WUHU216HW,2013-09-26 08:21:00,
2013-09-26 04:26:00,55.4,48.6,29.90,North,0,0.0,0.0,78,0.00,,,0.00,WUHU216HW,2013-09-26 08:26:00,
2013-09-26 04:31:00,55.4,48.6,29.90,North,0,0.0,0.0,78,0.00,,,0.00,WUHU216HW,2013-09-26 08:31:00,
2013-09-26 04:36:00,55.4,48.6,29.90,North,0,0.0,0.0,78,0.00,,,0.00,WUHU216HW,2013-09-26 08:36:00,
2013-09-26 04:41:00,55.4,48.6,29.90,North,0,0.0,0.0,78,0.00,,,0.00,WUHU216HW,2013-09-26 08:41:00,
2013-09-26 04:46:00,55.4,48.6,29.90,North,0,0.0,0.0,78,0.00,,,0.00,WUHU216HW,2013-09-26 08:46:00,
2013-09-26 04:51:00,55.4,48.6,29.90,North,0,0.0,0.0,78,0.00,,,0.00,WUHU216HW,2013-09-26 08:51:00,
2013-09-26 04:56:00,55.4,48.6,29.90,North,0,0.0,0.0,78,0.00,,,0.00,WUHU216HW,2013-09-26 08:56:00,
2013-09-26 05:01:00,55.4,48.6,29.90,North,0,0.0,0.0,78,0.00,,,0.00,WUHU216HW,2013-09-26 09:01:00,
2013-09-26 05:06:00,55.4,48.6,29.90,North,0,0.0,0.0,78,0.00,,,0.00,WUHU216HW,2013-09-26 09:06:00,
2013-09-26 05:11:00,55.4,48.6,29.90,North,0,0.0,0.0,78,0.00,,,0.00,WUHU216HW,2013-09-26 09:11:00,
2013-09-26 05:16:00,55.3,48.5,29.90,North,0,0.0,0.0,78,0.00,,,0.00,WUHU216HW,2013-09-26 09:16:00,
2013-09-26 05:21:00,55.3,48.5,29.90,North,0,0.0,0.0,78,0.00,,,0.00,WUHU216HW,2013-09-26 09:21:00,
2013-09-26 05:26:00,55.3,48.5,29.90,North,0,0.0,0.0,78,0.00,,,0.00,WUHU216HW,2013-09-26 09:26:00,
2013-09-26 05:31:00,55.3,48.5,29.90,North,0,0.0,0.0,78,0.00,,,0.00,WUHU216HW,2013-09-26 09:31:00,
2013-09-26 05:36:00,55.3,48.5,29.91,North,0,0.0,0.0,78,0.00,,,0.00,WUHU216HW,2013-09-26 09:36:00,
2013-09-26 05:41:00,55.3,48.5,29.91,North,0,0.0,0.0,78,0.00,,,0.00,WUHU216HW,2013-09-26 09:41:00,
2013-09-26 05:46:00,55.1,48.3,29.91,North,0,0.0,0.0,78,0.00,,,0.00,WUHU216HW,2013-09-26 09:46:00,
2013-09-26 05:51:00,55.1,48.3,29.91,North,0,0.0,0.0,78,0.00,,,0.00,WUHU216HW,2013-09-26 09:51:00,
2013-09-26 05:56:00,55.1,48.3,29.91,North,0,0.0,0.0,78,0.00,,,0.00,WUHU216HW,2013-09-26 09:56:00,
2013-09-26 06:01:00,55.1,48.3,29.91,North,0,0.0,0.0,78,0.00,,,0.00,WUHU216HW,2013-09-26 10:01:00,
2013-09-26 06:06:00,54.9,48.2,29.92,North,0,0.0,0.0,78,0.00,,,0.00,WUHU216HW,2013-09-26 10:06:00,
2013-09-26 06:11:00,54.9,48.2,29.92,North,0,0.0,0.0,78,0.00,,,0.00,WUHU216HW,2013-09-26 10:11:00,
2013-09-26 06:16:00,54.9,48.2,29.92,North,0,0.0,0.0,78,0.00,,,0.00,WUHU216HW,2013-09-26 10:16:00,
2013-09-26 06:21:00,54.7,48.0,29.92,North,0,0.0,0.0,78,0.00,,,0.00,WUHU216HW,2013-09-26 10:21:00,
2013-09-26 06:26:00,54.7,48.0,29.92,North,0,0.0,0.0,78,0.00,,,0.00,WUHU216HW,2013-09-26 10:26:00,
2013-09-26 06:31:00,54.7,48.0,29.92,North,0,0.0,0.0,78,0.00,,,0.00,WUHU216HW,2013-09-26 10:31:00,
2013-09-26 06:36:00,54.7,48.3,29.92,North,0,0.0,0.0,79,0.00,,,0.00,WUHU216HW,2013-09-26 10:36:00,
2013-09-26 06:41:00,54.7,48.3,29.92,North,0,0.0,0.0,79,0.00,,,0.00,WUHU216HW,2013-09-26 10:41:00,
2013-09-26 06:46:00,54.7,48.3,29.92,North,0,0.0,0.0,79,0.00,,,0.00,WUHU216HW,2013-09-26 10:46:00,
2013-09-26 06:51:00,54.9,48.5,29.92,North,0,0.0,0.0,79,0.00,,,0.00,WUHU216HW,2013-09-26 10:51:00,
2013-09-26 06:56:00,54.9,48.5,29.92,North,0,0.0,0.0,79,0.00,,,0.00,WUHU216HW,2013-09-26 10:56:00,
2013-09-26 07:01:00,54.7,48.0,29.92,North,0,0.0,0.0,78,0.00,,,0.00,WUHU216HW,2013-09-26 11:01:00,
2013-09-26 07:06:00,54.7,48.3,29.93,North,0,0.0,0.0,79,0.00,,,0.00,WUHU216HW,2013-09-26 11:06:00,
2013-09-26 07:11:00,54.7,48.3,29.93,North,0,0.0,0.0,79,0.00,,,0.00,WUHU216HW,2013-09-26 11:11:00,
2013-09-26 07:16:00,54.9,48.5,29.93,North,0,0.0,0.0,79,0.00,,,0.00,WUHU216HW,2013-09-26 11:16:00,
2013-09-26 07:21:00,54.9,48.5,29.93,North,0,0.0,0.0,79,0.00,,,0.00,WUHU216HW,2013-09-26 11:21:00,
2013-09-26 07:26:00,55.1,48.7,29.93,North,0,0.0,0.0,79,0.00,,,0.00,WUHU216HW,2013-09-26 11:26:00,
2013-09-26 07:31:00,55.1,48.7,29.93,North,0,0.0,0.0,79,0.00,,,0.00,WUHU216HW,2013-09-26 11:31:00,
2013-09-26 07:36:00,55.1,48.7,29.93,North,0,0.0,0.0,79,0.00,,,0.00,WUHU216HW,2013-09-26 11:36:00,
2013-09-26 07:41:00,55.4,49.0,29.93,North,0,0.0,0.0,79,0.00,,,0.00,WUHU216HW,2013-09-26 11:41:00,
2013-09-26 07:46:00,55.8,49.7,29.94,North,0,0.0,0.0,80,0.00,,,0.00,WUHU216HW,2013-09-26 11:46:00,
2013-09-26 07:51:00,56.2,49.7,29.94,North,0,0.0,0.0,79,0.00,,,0.00,WUHU216HW,2013-09-26 11:51:00,
2013-09-26 07:56:00,56.5,50.0,29.94,North,0,0.0,0.0,79,0.00,,,0.00,WUHU216HW,2013-09-26 11:56:00,
2013-09-26 08:01:00,56.9,50.4,29.94,North,0,0.0,0.0,79,0.00,,,0.00,WUHU216HW,2013-09-26 12:01:00,
2013-09-26 08:06:00,57.2,50.8,29.94,North,0,0.0,0.0,79,0.00,,,0.00,WUHU216HW,2013-09-26 12:06:00,
2013-09-26 08:11:00,57.6,51.1,29.94,North,0,0.0,0.0,79,0.00,,,0.00,WUHU216HW,2013-09-26 12:11:00,
2013-09-26 08:16:00,57.8,51.3,29.94,North,0,0.0,0.0,79,0.00,,,0.00,WUHU216HW,2013-09-26 12:16:00,
2013-09-26 08:21:00,58.0,51.5,29.94,North,0,0.0,0.0,79,0.00,,,0.00,WUHU216HW,2013-09-26 12:21:00,
2013-09-26 08:26:00,58.1,51.7,29.94,North,0,0.0,0.0,79,0.00,,,0.00,WUHU216HW,2013-09-26 12:26:00,
2013-09-26 08:31:00,58.3,51.8,29.94,North,0,0.0,0.0,79,0.00,,,0.00,WUHU216HW,2013-09-26 12:31:00,
2013-09-26 08:36:00,58.5,52.0,29.94,North,0,0.0,0.0,79,0.00,,,0.00,WUHU216HW,2013-09-26 12:36:00,
2013-09-26 08:41:00,58.9,52.4,29.95,North,0,0.0,0.0,79,0.00,,,0.00,WUHU216HW,2013-09-26 12:41:00,
2013-09-26 08:46:00,59.2,52.7,29.95,North,0,0.0,0.0,79,0.00,,,0.00,WUHU216HW,2013-09-26 12:46:00,
2013-09-26 08:51:00,59.4,52.9,29.95,North,0,0.0,0.0,79,0.00,,,0.00,WUHU216HW,2013-09-26 12:51:00,
2013-09-26 08:56:00,59.6,53.1,29.95,North,0,0.0,0.0,79,0.00,,,0.00,WUHU216HW,2013-09-26 12:56:00,
2013-09-26 09:01:00,59.9,53.5,29.95,North,0,0.0,0.0,79,0.00,,,0.00,WUHU216HW,2013-09-26 13:01:00,
2013-09-26 09:06:00,60.3,53.8,29.95,North,0,0.0,0.0,79,0.00,,,0.00,WUHU216HW,2013-09-26 13:06:00,
2013-09-26 09:11:00,60.7,53.8,29.95,North,0,0.0,0.0,78,0.00,,,0.00,WUHU216HW,2013-09-26 13:11:00,
2013-09-26 09:16:00,61.2,54.4,29.95,North,0,0.0,0.0,78,0.00,,,0.00,WUHU216HW,2013-09-26 13:16:00,
2013-09-26 09:21:00,61.4,54.5,29.95,North,0,0.0,0.0,78,0.00,,,0.00,WUHU216HW,2013-09-26 13:21:00,
2013-09-26 09:26:00,61.7,54.8,29.96,North,0,0.0,0.0,78,0.00,,,0.00,WUHU216HW,2013-09-26 13:26:00,
2013-09-26 09:31:00,61.7,54.8,29.96,North,0,0.0,0.0,78,0.00,,,0.00,WUHU216HW,2013-09-26 13:31:00,
2013-09-26 09:36:00,61.7,54.8,29.96,North,0,0.0,0.0,78,0.00,,,0.00,WUHU216HW,2013-09-26 13:36:00,
2013-09-26 09:41:00,61.9,55.0,29.96,North,0,0.0,0.0,78,0.00,,,0.00,WUHU216HW,2013-09-26 13:41:00,
2013-09-26 09:46:00,62.1,55.2,29.96,North,0,0.0,0.0,78,0.00,,,0.00,WUHU216HW,2013-09-26 13:46:00,
2013-09-26 09:51:00,62.3,55.3,29.96,North,0,0.0,0.0,78,0.00,,,0.00,WUHU216HW,2013-09-26 13:51:00,
2013-09-26 09:56:00,62.5,55.4,29.97,North,0,0.0,0.0,78,0.00,,,0.00,WUHU216HW,2013-09-26 13:56:00,
2013-09-26 10:01:00,62.8,55.8,29.96,North,0,0.0,0.0,78,0.00,,,0.00,WUHU216HW,2013-09-26 14:01:00,
2013-09-26 10:06:00,63.2,55.8,29.97,North,0,0.0,0.0,77,0.00,,,0.00,WUHU216HW,2013-09-26 14:06:00,
2013-09-26 10:11:00,63.5,56.5,29.97,North,0,0.0,0.0,78,0.00,,,0.00,WUHU216HW,2013-09-26 14:11:00,
2013-09-26 10:16:00,63.9,56.9,29.97,North,0,0.0,0.0,78,0.00,,,0.00,WUHU216HW,2013-09-26 14:16:00,
2013-09-26 10:21:00,64.3,57.2,29.97,North,0,0.0,0.0,78,0.00,,,0.00,WUHU216HW,2013-09-26 14:21:00,
2013-09-26 10:26:00,64.4,57.4,29.97,North,0,0.0,0.0,78,0.00,,,0.00,WUHU216HW,2013-09-26 14:26:00,
2013-09-26 10:31:00,64.6,57.6,29.97,North,0,0.0,0.0,78,0.00,,,0.00,WUHU216HW,2013-09-26 14:31:00,
2013-09-26 10:36:00,65.0,58.0,29.97,North,0,0.0,0.0,78,0.00,,,0.00,WUHU216HW,2013-09-26 14:36:00,
2013-09-26 10:41:00,65.2,57.8,29.97,North,0,0.0,0.0,77,0.00,,,0.00,WUHU216HW,2013-09-26 14:41:00,
2013-09-26 10:46:00,65.2,57.8,29.97,North,0,0.0,0.0,77,0.00,,,0.00,WUHU216HW,2013-09-26 14:46:00,
2013-09-26 10:51:00,65.5,58.2,29.97,North,0,0.0,0.0,77,0.00,,,0.00,WUHU216HW,2013-09-26 14:51:00,
2013-09-26 10:56:00,65.5,58.2,29.97,North,0,0.0,0.0,77,0.00,,,0.00,WUHU216HW,2013-09-26 14:56:00,
2013-09-26 11:01:00,65.9,58.5,29.97,North,0,0.0,0.0,77,0.00,,,0.00,WUHU216HW,2013-09-26 15:01:00,
2013-09-26 11:06:00,66.1,58.6,29.97,North,0,0.0,0.0,77,0.00,,,0.00,WUHU216HW,2013-09-26 15:06:00,
2013-09-26 11:11:00,66.2,58.4,29.97,North,0,0.0,0.0,76,0.00,,,0.00,WUHU216HW,2013-09-26 15:11:00,
2013-09-26 11:16:00,66.4,58.6,29.97,North,0,0.0,0.0,76,0.00,,,0.00,WUHU216HW,2013-09-26 15:16:00,
2013-09-26 11:21:00,66.4,58.6,29.97,North,0,0.0,0.0,76,0.00,,,0.00,WUHU216HW,2013-09-26 15:21:00,
2013-09-26 11:26:00,66.4,58.6,29.97,North,0,0.0,0.0,76,0.00,,,0.00,WUHU216HW,2013-09-26 15:26:00,
2013-09-26 11:31:00,66.8,58.6,29.97,North,0,0.0,0.0,75,0.00,,,0.00,WUHU216HW,2013-09-26 15:31:00,
2013-09-26 11:36:00,67.1,59.0,29.97,North,0,0.0,0.0,75,0.00,,,0.00,WUHU216HW,2013-09-26 15:36:00,
2013-09-26 11:41:00,67.3,59.1,29.97,North,0,0.0,0.0,75,0.00,,,0.00,WUHU216HW,2013-09-26 15:41:00,
2013-09-26 11:46:00,67.5,59.3,29.97,North,0,0.0,0.0,75,0.00,,,0.00,WUHU216HW,2013-09-26 15:46:00,
2013-09-26 11:51:00,67.7,59.1,29.97,North,0,0.0,0.0,74,0.00,,,0.00,WUHU216HW,2013-09-26 15:51:00,
2013-09-26 11:56:00,67.7,59.1,29.97,North,0,0.0,0.0,74,0.00,,,0.00,WUHU216HW,2013-09-26 15:56:00,
2013-09-26 12:01:00,67.5,59.0,29.97,North,0,0.0,0.0,74,0.00,,,0.00,WUHU216HW,2013-09-26 16:01:00,
2013-09-26 12:06:00,67.3,58.8,29.97,North,0,0.0,0.0,74,0.00,,,0.00,WUHU216HW,2013-09-26 16:06:00,
2013-09-26 12:11:00,67.1,58.6,29.97,North,0,0.0,0.0,74,0.00,,,0.00,WUHU216HW,2013-09-26 16:11:00,
2013-09-26 12:16:00,67.0,58.4,29.97,North,0,0.0,0.0,74,0.00,,,0.00,WUHU216HW,2013-09-26 16:16:00,
2013-09-26 12:21:00,67.1,59.0,29.98,North,0,0.0,0.0,75,0.00,,,0.00,WUHU216HW,2013-09-26 16:21:00,
2013-09-26 12:26:00,67.0,58.8,29.97,North,0,0.0,0.0,75,0.00,,,0.00,WUHU216HW,2013-09-26 16:26:00,
2013-09-26 12:31:00,67.1,59.0,29.97,North,0,0.0,0.0,75,0.00,,,0.00,WUHU216HW,2013-09-26 16:31:00,
2013-09-26 12:36:00,67.3,58.8,29.97,North,0,0.0,0.0,74,0.00,,,0.00,WUHU216HW,2013-09-26 16:36:00,
2013-09-26 12:41:00,67.3,59.1,29.97,North,0,0.0,0.0,75,0.00,,,0.00,WUHU216HW,2013-09-26 16:41:00,
2013-09-26 12:46:00,67.7,59.5,29.97,North,0,0.0,0.0,75,0.00,,,0.00,WUHU216HW,2013-09-26 16:46:00,
2013-09-26 12:51:00,67.9,59.7,29.97,North,0,0.0,0.0,75,0.00,,,0.00,WUHU216HW,2013-09-26 16:51:00,
2013-09-26 12:56:00,68.0,59.9,29.97,North,0,0.0,0.0,75,0.00,,,0.00,WUHU216HW,2013-09-26 16:56:00,
2013-09-26 13:01:00,68.4,59.8,29.97,North,0,0.0,0.0,74,0.00,,,0.00,WUHU216HW,2013-09-26 17:01:00,
2013-09-26 13:06:00,68.4,59.8,29.97,North,0,0.0,0.0,74,0.00,,,0.00,WUHU216HW,2013-09-26 17:06:00,
2013-09-26 13:11:00,68.8,60.1,29.97,North,0,0.0,0.0,74,0.00,,,0.00,WUHU216HW,2013-09-26 17:11:00,
2013-09-26 13:16:00,68.8,60.1,29.97,North,0,0.0,0.0,74,0.00,,,0.00,WUHU216HW,2013-09-26 17:16:00,
2013-09-26 13:21:00,68.9,60.3,29.97,North,0,0.0,0.0,74,0.00,,,0.00,WUHU216HW,2013-09-26 17:21:00,
2013-09-26 13:26:00,68.6,59.9,29.96,North,0,0.0,0.0,74,0.00,,,0.00,WUHU216HW,2013-09-26 17:26:00,
2013-09-26 13:31:00,68.4,59.8,29.96,North,0,0.0,0.0,74,0.00,,,0.00,WUHU216HW,2013-09-26 17:31:00,
2013-09-26 13:36:00,68.6,59.9,29.97,North,0,0.0,0.0,74,0.00,,,0.00,WUHU216HW,2013-09-26 17:36:00,
2013-09-26 13:41:00,68.6,59.9,29.97,North,0,0.0,0.0,74,0.00,,,0.00,WUHU216HW,2013-09-26 17:41:00,
2013-09-26 13:46:00,68.8,60.1,29.96,North,0,0.0,0.0,74,0.00,,,0.00,WUHU216HW,2013-09-26 17:46:00,
2013-09-26 13:51:00,68.8,60.1,29.96,North,0,0.0,0.0,74,0.00,,,0.00,WUHU216HW,2013-09-26 17:51:00,
2013-09-26 13:56:00,68.9,60.3,29.96,North,0,0.0,0.0,74,0.00,,,0.00,WUHU216HW,2013-09-26 17:56:00,
2013-09-26 14:01:00,68.9,60.3,29.96,North,0,0.0,0.0,74,0.00,,,0.00,WUHU216HW,2013-09-26 18:01:00,
2013-09-26 14:06:00,68.8,60.1,29.96,North,0,0.0,0.0,74,0.00,,,0.00,WUHU216HW,2013-09-26 18:06:00,
2013-09-26 14:11:00,68.9,60.3,29.96,North,0,0.0,0.0,74,0.00,,,0.00,WUHU216HW,2013-09-26 18:11:00,
2013-09-26 14:16:00,68.9,60.0,29.96,North,0,0.0,0.0,73,0.00,,,0.00,WUHU216HW,2013-09-26 18:16:00,
2013-09-26 14:21:00,68.9,59.5,29.96,North,0,0.0,0.0,72,0.00,,,0.00,WUHU216HW,2013-09-26 18:21:00,
2013-09-26 14:26:00,68.8,59.0,29.96,North,0,0.0,0.0,71,0.00,,,0.00,WUHU216HW,2013-09-26 18:26:00,
2013-09-26 14:31:00,68.8,59.0,29.96,North,0,0.0,0.0,71,0.00,,,0.00,WUHU216HW,2013-09-26 18:31:00,
2013-09-26 14:36:00,68.8,59.4,29.97,North,0,0.0,0.0,72,0.00,,,0.00,WUHU216HW,2013-09-26 18:36:00,
2013-09-26 14:41:00,68.8,59.4,29.96,North,0,0.0,0.0,72,0.00,,,0.00,WUHU216HW,2013-09-26 18:41:00,
2013-09-26 14:46:00,68.6,59.2,29.96,North,0,0.0,0.0,72,0.00,,,0.00,WUHU216HW,2013-09-26 18:46:00,
2013-09-26 14:51:00,68.9,59.5,29.96,North,0,0.0,0.0,72,0.00,,,0.00,WUHU216HW,2013-09-26 18:51:00,
2013-09-26 14:56:00,69.1,59.3,29.97,North,0,0.0,0.0,71,0.00,,,0.00,WUHU216HW,2013-09-26 18:56:00,
2013-09-26 15:01:00,68.9,58.8,29.97,North,0,0.0,0.0,70,0.00,,,0.00,WUHU216HW,2013-09-26 19:01:00,
2013-09-26 15:06:00,68.8,59.0,29.97,North,0,0.0,0.0,71,0.00,,,0.00,WUHU216HW,2013-09-26 19:06:00,
2013-09-26 15:11:00,68.8,59.0,29.97,North,0,0.0,0.0,71,0.00,,,0.00,WUHU216HW,2013-09-26 19:11:00,
2013-09-26 15:18:00,68.8,58.6,29.97,North,0,0.0,0.0,70,0.00,,,0.00,WUHU216HW,2013-09-26 19:18:00,
2013-09-26 15:23:00,68.9,58.8,29.97,North,0,0.0,0.0,70,0.00,,,0.00,WUHU216HW,2013-09-26 19:23:00,
2013-09-26 15:28:00,68.9,58.8,29.97,North,0,0.0,0.0,70,0.00,,,0.00,WUHU216HW,2013-09-26 19:28:00,
2013-09-26 15:33:00,69.3,58.2,29.97,North,0,0.0,0.0,68,0.00,,,0.00,WUHU216HW,2013-09-26 19:33:00,
2013-09-26 15:38:00,69.3,58.2,29.97,North,0,0.0,0.0,68,0.00,,,0.00,WUHU216HW,2013-09-26 19:38:00,
2013-09-26 15:43:00,69.5,58.9,29.97,North,0,0.0,0.0,69,0.00,,,0.00,WUHU216HW,2013-09-26 19:43:00,
2013-09-26 15:48:00,69.3,57.9,29.97,North,0,0.0,0.0,67,0.00,,,0.00,WUHU216HW,2013-09-26 19:48:00,
2013-09-26 15:53:00,68.6,57.2,29.98,North,0,0.0,0.0,67,0.00,,,0.00,WUHU216HW,2013-09-26 19:53:00,
2013-09-26 15:58:00,68.4,57.4,29.98,North,0,0.0,0.0,68,0.00,,,0.00,WUHU216HW,2013-09-26 19:58:00,
2013-09-26 16:03:00,68.2,57.7,29.98,North,0,0.0,0.0,69,0.00,,,0.00,WUHU216HW,2013-09-26 20:03:00,
2013-09-26 16:08:00,68.0,58.0,29.98,North,0,0.0,0.0,70,0.00,,,0.00,WUHU216HW,2013-09-26 20:08:00,
2013-09-26 16:13:00,67.9,58.1,29.98,North,0,0.0,0.0,71,0.00,,,0.00,WUHU216HW,2013-09-26 20:13:00,
2013-09-26 16:18:00,67.5,57.8,29.98,North,0,0.0,0.0,71,0.00,,,0.00,WUHU216HW,2013-09-26 20:18:00,
2013-09-26 16:23:00,67.1,57.8,29.98,North,0,0.0,0.0,72,0.00,,,0.00,WUHU216HW,2013-09-26 20:23:00,
2013-09-26 16:28:00,67.0,57.6,29.98,North,0,0.0,0.0,72,0.00,,,0.00,WUHU216HW,2013-09-26 20:28:00,
2013-09-26 16:33:00,66.8,57.4,29.98,North,0,0.0,0.0,72,0.00,,,0.00,WUHU216HW,2013-09-26 20:33:00,
2013-09-26 16:38:00,66.6,57.7,29.98,North,0,0.0,0.0,73,0.00,,,0.00,WUHU216HW,2013-09-26 20:38:00,
2013-09-26 16:43:00,66.4,57.1,29.98,North,0,0.0,0.0,72,0.00,,,0.00,WUHU216HW,2013-09-26 20:43:00,
2013-09-26 16:48:00,66.4,57.5,29.98,North,0,0.0,0.0,73,0.00,,,0.00,WUHU216HW,2013-09-26 20:48:00,
2013-09-26 16:58:00,66.6,57.2,29.98,North,0,0.0,0.0,72,0.00,,,0.00,WUHU216HW,2013-09-26 20:58:00,
2013-09-26 17:03:00,66.6,57.2,29.98,North,0,0.0,0.0,72,0.00,,,0.00,WUHU216HW,2013-09-26 21:03:00,
2013-09-26 17:08:00,66.4,57.1,29.98,North,0,0.0,0.0,72,0.00,,,0.00,WUHU216HW,2013-09-26 21:08:00,
2013-09-26 17:13:00,66.1,56.8,29.99,North,0,0.0,0.0,72,0.00,,,0.00,WUHU216HW,2013-09-26 21:13:00,
2013-09-26 17:18:00,66.1,57.2,29.99,North,0,0.0,0.0,73,0.00,,,0.00,WUHU216HW,2013-09-26 21:18:00,
2013-09-26 17:23:00,66.2,57.3,29.99,North,0,0.0,0.0,73,0.00,,,0.00,WUHU216HW,2013-09-26 21:23:00,
2013-09-26 17:28:00,66.2,57.3,29.99,North,0,0.0,0.0,73,0.00,,,0.00,WUHU216HW,2013-09-26 21:28:00,
2013-09-26 17:33:00,66.2,57.3,29.99,North,0,0.0,0.0,73,0.00,,,0.00,WUHU216HW,2013-09-26 21:33:00,
2013-09-26 17:38:00,66.1,57.2,29.99,North,0,0.0,0.0,73,0.00,,,0.00,WUHU216HW,2013-09-26 21:38:00,
2013-09-26 17:43:00,65.9,57.0,29.99,North,0,0.0,0.0,73,0.00,,,0.00,WUHU216HW,2013-09-26 21:43:00,
2013-09-26 17:48:00,65.7,56.8,29.99,North,0,0.0,0.0,73,0.00,,,0.00,WUHU216HW,2013-09-26 21:48:00,
2013-09-26 17:53:00,65.5,56.6,29.99,North,0,0.0,0.0,73,0.00,,,0.00,WUHU216HW,2013-09-26 21:53:00,
2013-09-26 17:58:00,65.2,56.7,29.99,North,0,0.0,0.0,74,0.00,,,0.00,WUHU216HW,2013-09-26 21:58:00,
2013-09-26 18:03:00,65.2,56.7,29.99,North,0,0.0,0.0,74,0.00,,,0.00,WUHU216HW,2013-09-26 22:03:00,
2013-09-26 18:08:00,65.2,56.7,30.00,North,0,0.0,0.0,74,0.00,,,0.00,WUHU216HW,2013-09-26 22:08:00,
2013-09-26 18:13:00,65.2,56.3,30.00,North,0,0.0,0.0,73,0.00,,,0.00,WUHU216HW,2013-09-26 22:13:00,
2013-09-26 18:18:00,65.2,56.3,30.00,North,0,0.0,0.0,73,0.00,,,0.00,WUHU216HW,2013-09-26 22:18:00,
2013-09-26 18:23:00,64.8,56.0,30.00,North,0,0.0,0.0,73,0.00,,,0.00,WUHU216HW,2013-09-26 22:23:00,
2013-09-26 18:28:00,64.8,56.4,30.00,North,0,0.0,0.0,74,0.00,,,0.00,WUHU216HW,2013-09-26 22:28:00,
2013-09-26 18:34:00,64.6,56.2,30.00,North,0,0.0,0.0,74,0.00,,,0.00,WUHU216HW,2013-09-26 22:34:00,
2013-09-26 18:39:00,64.6,56.2,30.00,North,0,0.0,0.0,74,0.00,,,0.00,WUHU216HW,2013-09-26 22:39:00,
2013-09-26 18:44:00,64.4,56.0,30.00,North,0,0.0,0.0,74,0.00,,,0.00,WUHU216HW,2013-09-26 22:44:00,
2013-09-26 18:49:00,64.4,56.0,30.00,North,0,0.0,0.0,74,0.00,,,0.00,WUHU216HW,2013-09-26 22:49:00,
2013-09-26 18:54:00,64.4,56.0,30.00,North,0,0.0,0.0,74,0.00,,,0.00,WUHU216HW,2013-09-26 22:54:00,
2013-09-26 18:59:00,64.3,55.8,30.00,North,0,0.0,0.0,74,0.00,,,0.00,WUHU216HW,2013-09-26 22:59:00,
2013-09-26 19:04:00,64.3,55.8,30.00,North,0,0.0,0.0,74,0.00,,,0.00,WUHU216HW,2013-09-26 23:04:00,
2013-09-26 19:09:00,64.3,55.8,30.00,North,0,0.0,0.0,74,0.00,,,0.00,WUHU216HW,2013-09-26 23:09:00,
2013-09-26 19:14:00,64.3,55.8,30.00,North,0,0.0,0.0,74,0.00,,,0.00,WUHU216HW,2013-09-26 23:14:00,
2013-09-26 19:19:00,64.3,55.8,30.00,North,0,0.0,0.0,74,0.00,,,0.00,WUHU216HW,2013-09-26 23:19:00,
2013-09-26 19:24:00,64.3,55.8,30.00,North,0,0.0,0.0,74,0.00,,,0.00,WUHU216HW,2013-09-26 23:24:00,
2013-09-26 19:29:00,64.1,55.6,30.01,North,0,0.0,0.0,74,0.00,,,0.00,WUHU216HW,2013-09-26 23:29:00,
2013-09-26 19:34:00,64.1,55.6,30.00,North,0,0.0,0.0,74,0.00,,,0.00,WUHU216HW,2013-09-26 23:34:00,
2013-09-26 19:39:00,64.1,55.6,30.01,North,0,0.0,0.0,74,0.00,,,0.00,WUHU216HW,2013-09-26 23:39:00,
2013-09-26 19:44:00,63.7,55.3,30.01,North,0,0.0,0.0,74,0.00,,,0.00,WUHU216HW,2013-09-26 23:44:00,
2013-09-26 19:49:00,63.5,55.1,30.01,North,0,0.0,0.0,74,0.00,,,0.00,WUHU216HW,2013-09-26 23:49:00,
2013-09-26 19:54:00,63.4,54.9,30.01,North,0,0.0,0.0,74,0.00,,,0.00,WUHU216HW,2013-09-26 23:54:00,
2013-09-26 19:59:00,63.4,54.9,30.01,North,0,0.0,0.0,74,0.00,,,0.00,WUHU216HW,2013-09-26 23:59:00,
2013-09-26 20:04:00,63.2,54.7,30.01,North,0,0.0,0.0,74,0.00,,,0.00,WUHU216HW,2013-09-27 00:04:00,
2013-09-26 20:10:00,63.0,54.9,30.01,North,0,0.0,0.0,75,0.00,,,0.00,WUHU216HW,2013-09-27 00:10:00,
2013-09-26 20:15:00,62.8,54.7,30.02,North,0,0.0,0.0,75,0.00,,,0.00,WUHU216HW,2013-09-27 00:15:00,
2013-09-26 20:20:00,62.6,54.2,30.01,North,0,0.0,0.0,74,0.00,,,0.00,WUHU216HW,2013-09-27 00:20:00,
2013-09-26 20:25:00,62.5,54.0,30.02,North,0,0.0,0.0,74,0.00,,,0.00,WUHU216HW,2013-09-27 00:25:00,
2013-09-26 20:30:00,62.3,53.8,30.02,North,0,0.0,0.0,74,0.00,,,0.00,WUHU216HW,2013-09-27 00:30:00,
2013-09-26 20:35:00,62.3,54.2,30.02,North,0,0.0,0.0,75,0.00,,,0.00,WUHU216HW,2013-09-27 00:35:00,
2013-09-26 20:40:00,62.3,54.2,30.02,North,0,0.0,0.0,75,0.00,,,0.00,WUHU216HW,2013-09-27 00:40:00,
2013-09-26 20:45:00,62.3,54.2,30.02,North,0,0.0,0.0,75,0.00,,,0.00,WUHU216HW,2013-09-27 00:45:00,
2013-09-26 20:50:00,62.3,54.2,30.03,North,0,0.0,0.0,75,0.00,,,0.00,WUHU216HW,2013-09-27 00:50:00,
2013-09-26 20:55:00,62.3,54.5,30.03,North,0,0.0,0.0,76,0.00,,,0.00,WUHU216HW,2013-09-27 00:55:00,
2013-09-26 21:00:00,62.3,54.5,30.03,North,0,0.0,0.0,76,0.00,,,0.00,WUHU216HW,2013-09-27 01:00:00,
2013-09-26 21:05:00,62.3,54.5,30.03,North,0,0.0,0.0,76,0.00,,,0.00,WUHU216HW,2013-09-27 01:05:00,
2013-09-26 21:10:00,62.5,54.7,30.03,North,0,0.0,0.0,76,0.00,,,0.00,WUHU216HW,2013-09-27 01:10:00,
2013-09-26 21:15:00,62.5,54.7,30.03,North,0,0.0,0.0,76,0.00,,,0.00,WUHU216HW,2013-09-27 01:15:00,
2013-09-26 21:20:00,62.6,54.9,30.03,North,0,0.0,0.0,76,0.00,,,0.00,WUHU216HW,2013-09-27 01:20:00,
2013-09-26 21:25:00,62.6,54.9,30.03,North,0,0.0,0.0,76,0.00,,,0.00,WUHU216HW,2013-09-27 01:25:00,
2013-09-26 21:30:00,62.6,54.9,30.03,North,0,0.0,0.0,76,0.00,,,0.00,WUHU216HW,2013-09-27 01:30:00,
2013-09-26 21:37:00,62.6,54.9,30.04,North,0,0.0,0.0,76,0.00,,,0.00,WUHU216HW,2013-09-27 01:37:00,
2013-09-26 21:42:00,62.6,54.9,30.04,North,0,0.0,0.0,76,0.00,,,0.00,WUHU216HW,2013-09-27 01:42:00,
2013-09-26 21:47:00,62.6,54.9,30.04,North,0,0.0,0.0,76,0.00,,,0.00,WUHU216HW,2013-09-27 01:47:00,
2013-09-26 21:52:00,62.6,54.9,30.04,North,0,0.0,0.0,76,0.00,,,0.00,WUHU216HW,2013-09-27 01:52:00,
2013-09-26 21:57:00,62.8,55.1,30.04,North,0,0.0,0.0,76,0.00,,,0.00,WUHU216HW,2013-09-27 01:57:00,
2013-09-26 22:02:00,62.8,55.1,30.04,North,0,0.0,0.0,76,0.00,,,0.00,WUHU216HW,2013-09-27 02:02:00,
2013-09-26 22:07:00,62.8,55.1,30.04,North,0,0.0,0.0,76,0.00,,,0.00,WUHU216HW,2013-09-27 02:07:00,
2013-09-26 22:15:00,62.6,54.9,30.04,North,0,0.0,0.0,76,0.00,,,0.00,WUHU216HW,2013-09-27 02:15:00,
2013-09-26 22:20:00,62.6,54.9,30.04,North,0,0.0,0.0,76,0.00,,,0.00,WUHU216HW,2013-09-27 02:20:00,
2013-09-26 22:25:00,62.6,54.9,30.04,North,0,0.0,0.0,76,0.00,,,0.00,WUHU216HW,2013-09-27 02:25:00,
2013-09-26 22:30:00,62.6,54.9,30.04,North,0,0.0,0.0,76,0.00,,,0.00,WUHU216HW,2013-09-27 02:30:00,
2013-09-26 22:35:00,62.6,54.9,30.04,North,0,0.0,0.0,76,0.00,,,0.00,WUHU216HW,2013-09-27 02:35:00,
2013-09-26 22:40:00,62.6,54.9,30.04,North,0,0.0,0.0,76,0.00,,,0.00,WUHU216HW,2013-09-27 02:40:00,
2013-09-26 22:45:00,62.6,54.9,30.05,North,0,0.0,0.0,76,0.00,,,0.00,WUHU216HW,2013-09-27 02:45:00,
2013-09-26 22:50:00,62.8,55.1,30.05,North,0,0.0,0.0,76,0.00,,,0.00,WUHU216HW,2013-09-27 02:50:00,
2013-09-26 22:55:00,62.8,55.1,30.05,North,0,0.0,0.0,76,0.00,,,0.00,WUHU216HW,2013-09-27 02:55:00,
2013-09-26 23:00:00,63.0,55.3,30.05,North,0,0.0,0.0,76,0.00,,,0.00,WUHU216HW,2013-09-27 03:00:00,
2013-09-26 23:05:00,63.0,55.3,30.05,North,0,0.0,0.0,76,0.00,,,0.00,WUHU216HW,2013-09-27 03:05:00,
2013-09-26 23:10:00,63.0,55.3,30.05,North,0,0.0,0.0,76,0.00,,,0.00,WUHU216HW,2013-09-27 03:10:00,
2013-09-26 23:15:00,63.2,55.4,30.05,North,0,0.0,0.0,76,0.00,,,0.00,WUHU216HW,2013-09-27 03:15:00,
2013-09-26 23:20:00,63.2,55.1,30.05,North,0,0.0,0.0,75,0.00,,,0.00,WUHU216HW,2013-09-27 03:20:00,
2013-09-26 23:25:00,63.0,54.9,30.05,North,0,0.0,0.0,75,0.00,,,0.00,WUHU216HW,2013-09-27 03:25:00,
2013-09-26 23:30:00,63.0,54.9,30.05,North,0,0.0,0.0,75,0.00,,,0.00,WUHU216HW,2013-09-27 03:30:00,
2013-09-26 23:35:00,63.0,54.9,30.05,North,0,0.0,0.0,75,0.00,,,0.00,WUHU216HW,2013-09-27 03:35:00,
2013-09-26 23:40:00,62.8,54.7,30.05,North,0,0.0,0.0,75,0.00,,,0.00,WUHU216HW,2013-09-27 03:40:00,
2013-09-26 23:45:00,62.8,54.7,30.05,North,0,0.0,0.0,75,0.00,,,0.00,WUHU216HW,2013-09-27 03:45:00,
2013-09-26 23:50:00,62.6,54.2,30.05,North,0,0.0,0.0,74,0.00,,,0.00,WUHU216HW,2013-09-27 03:50:00,
2013-09-26 23:55:00,62.6,54.2,30.05,North,0,0.0,0.0,74,0.00,,,0.00,WUHU216HW,2013-09-27 03:55:00,